<?xml version="1.0" encoding="UTF-8" standalone="no" ?>
<gpx xmlns="http://www.topografix.com/GPX/1/1" xmlns:xsi="http://www.w3.org/2001/XMLSchema-instance" xsi:schemaLocation="http://www.topografix.com/GPX/1/1 http://www.topografix.com/GPX/1/1/gpx.xsd" version="1.1" creator="VisuGPX - https://www.visugpx.com">
  <metadata>
    <name>Rando LN</name>
  </metadata>
  <trk>
    <name><![CDATA[blasimon]]></name>
    <extensions>
      <line xmlns="http://www.topografix.com/GPX/gpx_style/0/2">
        <color>00fbff</color>
        <width>4</width>
      </line>
    </extensions>
    <trkseg>
      <trkpt lat="44.69286" lon="-0.0858">
        <ele>76.617</ele>
        <time>2017-03-28T18:08:38Z</time>
      </trkpt>
      <trkpt lat="44.69286" lon="-0.0858">
        <ele>76.617</ele>
        <time>2017-03-28T18:08:38Z</time>
      </trkpt>
      <trkpt lat="44.69286" lon="-0.0858">
        <ele>76.617</ele>
        <time>2017-03-28T18:08:38Z</time>
      </trkpt>
      <trkpt lat="44.69286" lon="-0.0858">
        <ele>76.617</ele>
        <time>2017-03-28T18:08:38Z</time>
      </trkpt>
      <trkpt lat="44.69286" lon="-0.0858">
        <ele>76.617</ele>
        <time>2017-03-28T18:08:38Z</time>
      </trkpt>
      <trkpt lat="44.69286" lon="-0.0858">
        <ele>76.617</ele>
        <time>2017-03-28T18:08:38Z</time>
      </trkpt>
      <trkpt lat="44.69286" lon="-0.0858">
        <ele>76.617</ele>
        <time>2017-03-28T18:08:38Z</time>
      </trkpt>
      <trkpt lat="44.69286" lon="-0.0858">
        <ele>76.617</ele>
        <time>2017-03-28T18:08:38Z</time>
      </trkpt>
      <trkpt lat="44.69286" lon="-0.0858">
        <ele>76.617</ele>
        <time>2017-03-28T18:08:38Z</time>
      </trkpt>
      <trkpt lat="44.69286" lon="-0.0858">
        <ele>76.617</ele>
        <time>2017-03-28T18:08:38Z</time>
      </trkpt>
      <trkpt lat="44.69286" lon="-0.0858">
        <ele>76.617</ele>
        <time>2017-03-28T18:08:38Z</time>
      </trkpt>
      <trkpt lat="44.69286" lon="-0.0858">
        <ele>76.617</ele>
        <time>2017-03-28T18:08:38Z</time>
      </trkpt>
      <trkpt lat="44.69286" lon="-0.0858">
        <ele>76.617</ele>
        <time>2017-03-28T18:08:38Z</time>
      </trkpt>
      <trkpt lat="44.69339" lon="-0.08645">
        <ele>76.118</ele>
        <time>2017-03-28T18:08:58Z</time>
      </trkpt>
      <trkpt lat="44.6947" lon="-0.08851">
        <ele>82.808</ele>
        <time>2017-03-28T18:09:18Z</time>
      </trkpt>
      <trkpt lat="44.70061" lon="-0.08812">
        <ele>93.299</ele>
        <time>2017-03-28T18:09:38Z</time>
      </trkpt>
      <trkpt lat="44.70065" lon="-0.08623">
        <ele>88.474</ele>
        <time>2017-03-28T18:09:58Z</time>
      </trkpt>
      <trkpt lat="44.70253" lon="-0.08391">
        <ele>82.774</ele>
        <time>2017-03-28T18:10:18Z</time>
      </trkpt>
      <trkpt lat="44.70271" lon="-0.0822">
        <ele>77.916</ele>
        <time>2017-03-28T18:10:38Z</time>
      </trkpt>
      <trkpt lat="44.70273" lon="-0.07979">
        <ele>65.278</ele>
        <time>2017-03-28T18:10:58Z</time>
      </trkpt>
      <trkpt lat="44.70264" lon="-0.07842">
        <ele>54.539</ele>
        <time>2017-03-28T18:11:18Z</time>
      </trkpt>
      <trkpt lat="44.7025" lon="-0.077">
        <ele>54.465</ele>
        <time>2017-03-28T18:11:38Z</time>
      </trkpt>
      <trkpt lat="44.70264" lon="-0.07655">
        <ele>55.647</ele>
        <time>2017-03-28T18:11:58Z</time>
      </trkpt>
      <trkpt lat="44.70328" lon="-0.0769">
        <ele>58.915</ele>
        <time>2017-03-28T18:12:18Z</time>
      </trkpt>
      <trkpt lat="44.70427" lon="-0.07733">
        <ele>56.565</ele>
        <time>2017-03-28T18:12:38Z</time>
      </trkpt>
      <trkpt lat="44.70627" lon="-0.07855">
        <ele>52.811</ele>
        <time>2017-03-28T18:12:58Z</time>
      </trkpt>
      <trkpt lat="44.70732" lon="-0.07859">
        <ele>56.508</ele>
        <time>2017-03-28T18:13:18Z</time>
      </trkpt>
      <trkpt lat="44.70864" lon="-0.07913">
        <ele>58.347</ele>
        <time>2017-03-28T18:13:38Z</time>
      </trkpt>
      <trkpt lat="44.70964" lon="-0.07928">
        <ele>61.492</ele>
        <time>2017-03-28T18:13:58Z</time>
      </trkpt>
      <trkpt lat="44.71072" lon="-0.07984">
        <ele>63.252</ele>
        <time>2017-03-28T18:14:18Z</time>
      </trkpt>
      <trkpt lat="44.71177" lon="-0.08097">
        <ele>60.924</ele>
        <time>2017-03-28T18:14:38Z</time>
      </trkpt>
      <trkpt lat="44.7123" lon="-0.08115">
        <ele>61.026</ele>
        <time>2017-03-28T18:14:58Z</time>
      </trkpt>
      <trkpt lat="44.71278" lon="-0.08151">
        <ele>61.067</ele>
        <time>2017-03-28T18:15:18Z</time>
      </trkpt>
      <trkpt lat="44.71307" lon="-0.08155">
        <ele>61.463</ele>
        <time>2017-03-28T18:15:38Z</time>
      </trkpt>
      <trkpt lat="44.71397" lon="-0.08054">
        <ele>68.095</ele>
        <time>2017-03-28T18:15:58Z</time>
      </trkpt>
      <trkpt lat="44.71458" lon="-0.07949">
        <ele>68.969</ele>
        <time>2017-03-28T18:16:18Z</time>
      </trkpt>
      <trkpt lat="44.715" lon="-0.07904">
        <ele>68.404</ele>
        <time>2017-03-28T18:16:38Z</time>
      </trkpt>
      <trkpt lat="44.71599" lon="-0.07848">
        <ele>69.624</ele>
        <time>2017-03-28T18:16:58Z</time>
      </trkpt>
      <trkpt lat="44.71792" lon="-0.07711">
        <ele>73.708</ele>
        <time>2017-03-28T18:17:18Z</time>
      </trkpt>
      <trkpt lat="44.71946" lon="-0.0761">
        <ele>75.042</ele>
        <time>2017-03-28T18:17:38Z</time>
      </trkpt>
      <trkpt lat="44.71985" lon="-0.07563">
        <ele>73.597</ele>
        <time>2017-03-28T18:17:58Z</time>
      </trkpt>
      <trkpt lat="44.72226" lon="-0.07499">
        <ele>87.197</ele>
        <time>2017-03-28T18:18:18Z</time>
      </trkpt>
      <trkpt lat="44.72286" lon="-0.07488">
        <ele>91.079</ele>
        <time>2017-03-28T18:18:38Z</time>
      </trkpt>
      <trkpt lat="44.72418" lon="-0.07451">
        <ele>89.391</ele>
        <time>2017-03-28T18:18:58Z</time>
      </trkpt>
      <trkpt lat="44.72586" lon="-0.07366">
        <ele>96.572</ele>
        <time>2017-03-28T18:19:18Z</time>
      </trkpt>
      <trkpt lat="44.72712" lon="-0.07314">
        <ele>106.768</ele>
        <time>2017-03-28T18:19:38Z</time>
      </trkpt>
      <trkpt lat="44.72819" lon="-0.07282">
        <ele>108.78</ele>
        <time>2017-03-28T18:19:58Z</time>
      </trkpt>
      <trkpt lat="44.72897" lon="-0.07179">
        <ele>99.435</ele>
        <time>2017-03-28T18:20:18Z</time>
      </trkpt>
      <trkpt lat="44.72943" lon="-0.07115">
        <ele>100.986</ele>
        <time>2017-03-28T18:20:38Z</time>
      </trkpt>
      <trkpt lat="44.72981" lon="-0.07104">
        <ele>103.214</ele>
        <time>2017-03-28T18:20:58Z</time>
      </trkpt>
      <trkpt lat="44.73042" lon="-0.07106">
        <ele>98.408</ele>
        <time>2017-03-28T18:21:18Z</time>
      </trkpt>
      <trkpt lat="44.73273" lon="-0.07048">
        <ele>90.989</ele>
        <time>2017-03-28T18:21:38Z</time>
      </trkpt>
      <trkpt lat="44.73334" lon="-0.0705">
        <ele>89.244</ele>
        <time>2017-03-28T18:21:58Z</time>
      </trkpt>
      <trkpt lat="44.73576" lon="-0.06944">
        <ele>74.054</ele>
        <time>2017-03-28T18:22:18Z</time>
      </trkpt>
      <trkpt lat="44.73645" lon="-0.06931">
        <ele>73.896</ele>
        <time>2017-03-28T18:22:38Z</time>
      </trkpt>
      <trkpt lat="44.73636" lon="-0.07116">
        <ele>72.138</ele>
        <time>2017-03-28T18:22:58Z</time>
      </trkpt>
      <trkpt lat="44.73683" lon="-0.07292">
        <ele>71.089</ele>
        <time>2017-03-28T18:23:18Z</time>
      </trkpt>
      <trkpt lat="44.73715" lon="-0.07519">
        <ele>66.775</ele>
        <time>2017-03-28T18:23:38Z</time>
      </trkpt>
      <trkpt lat="44.73741" lon="-0.07598">
        <ele>65.657</ele>
        <time>2017-03-28T18:23:58Z</time>
      </trkpt>
      <trkpt lat="44.73759" lon="-0.07751">
        <ele>70.095</ele>
        <time>2017-03-28T18:24:18Z</time>
      </trkpt>
      <trkpt lat="44.74029" lon="-0.07611">
        <ele>58.049</ele>
        <time>2017-03-28T18:24:38Z</time>
      </trkpt>
      <trkpt lat="44.74221" lon="-0.07551">
        <ele>66.423</ele>
        <time>2017-03-28T18:24:58Z</time>
      </trkpt>
      <trkpt lat="44.74296" lon="-0.07525">
        <ele>69.808</ele>
        <time>2017-03-28T18:25:18Z</time>
      </trkpt>
      <trkpt lat="44.74325" lon="-0.07536">
        <ele>71.135</ele>
        <time>2017-03-28T18:25:38Z</time>
      </trkpt>
      <trkpt lat="44.74354" lon="-0.07628">
        <ele>70.08</ele>
        <time>2017-03-28T18:25:58Z</time>
      </trkpt>
      <trkpt lat="44.74377" lon="-0.07641">
        <ele>69.96</ele>
        <time>2017-03-28T18:26:18Z</time>
      </trkpt>
      <trkpt lat="44.74409" lon="-0.07609">
        <ele>69.692</ele>
        <time>2017-03-28T18:26:38Z</time>
      </trkpt>
      <trkpt lat="44.74442" lon="-0.07766">
        <ele>68.934</ele>
        <time>2017-03-28T18:26:58Z</time>
      </trkpt>
      <trkpt lat="44.74488" lon="-0.07899">
        <ele>69.035</ele>
        <time>2017-03-28T18:27:18Z</time>
      </trkpt>
      <trkpt lat="44.74611" lon="-0.08079">
        <ele>69.241</ele>
        <time>2017-03-28T18:27:38Z</time>
      </trkpt>
      <trkpt lat="44.74724" lon="-0.08189">
        <ele>65.123</ele>
        <time>2017-03-28T18:27:58Z</time>
      </trkpt>
      <trkpt lat="44.74768" lon="-0.08337">
        <ele>67.417</ele>
        <time>2017-03-28T18:28:18Z</time>
      </trkpt>
      <trkpt lat="44.74822" lon="-0.08307">
        <ele>64.587</ele>
        <time>2017-03-28T18:28:38Z</time>
      </trkpt>
      <trkpt lat="44.74876" lon="-0.08253">
        <ele>60.515</ele>
        <time>2017-03-28T18:28:58Z</time>
      </trkpt>
      <trkpt lat="44.74881" lon="-0.08071">
        <ele>57.308</ele>
        <time>2017-03-28T18:29:18Z</time>
      </trkpt>
      <trkpt lat="44.74867" lon="-0.0785">
        <ele>51.887</ele>
        <time>2017-03-28T18:29:38Z</time>
      </trkpt>
      <trkpt lat="44.74873" lon="-0.07787">
        <ele>47.842</ele>
        <time>2017-03-28T18:29:58Z</time>
      </trkpt>
      <trkpt lat="44.74936" lon="-0.07667">
        <ele>59.042</ele>
        <time>2017-03-28T18:30:18Z</time>
      </trkpt>
      <trkpt lat="44.74887" lon="-0.075">
        <ele>66.944</ele>
        <time>2017-03-28T18:30:38Z</time>
      </trkpt>
      <trkpt lat="44.75087" lon="-0.07358">
        <ele>58.966</ele>
        <time>2017-03-28T18:30:58Z</time>
      </trkpt>
      <trkpt lat="44.7516" lon="-0.07315">
        <ele>60.057</ele>
        <time>2017-03-28T18:31:18Z</time>
      </trkpt>
      <trkpt lat="44.75193" lon="-0.07264">
        <ele>61.523</ele>
        <time>2017-03-28T18:31:38Z</time>
      </trkpt>
      <trkpt lat="44.75251" lon="-0.0715">
        <ele>62.415</ele>
        <time>2017-03-28T18:31:58Z</time>
      </trkpt>
      <trkpt lat="44.75277" lon="-0.07068">
        <ele>60.079</ele>
        <time>2017-03-28T18:32:18Z</time>
      </trkpt>
      <trkpt lat="44.7532" lon="-0.07004">
        <ele>59.305</ele>
        <time>2017-03-28T18:32:38Z</time>
      </trkpt>
      <trkpt lat="44.75332" lon="-0.06938">
        <ele>61.425</ele>
        <time>2017-03-28T18:32:58Z</time>
      </trkpt>
      <trkpt lat="44.75331" lon="-0.06805">
        <ele>49.208</ele>
        <time>2017-03-28T18:33:18Z</time>
      </trkpt>
      <trkpt lat="44.75483" lon="-0.06661">
        <ele>31.123</ele>
        <time>2017-03-28T18:33:38Z</time>
      </trkpt>
      <trkpt lat="44.75434" lon="-0.065">
        <ele>30.438</ele>
        <time>2017-03-28T18:33:58Z</time>
      </trkpt>
      <trkpt lat="44.75393" lon="-0.06408">
        <ele>33.318</ele>
        <time>2017-03-28T18:34:18Z</time>
      </trkpt>
      <trkpt lat="44.75395" lon="-0.0638">
        <ele>34.13</ele>
        <time>2017-03-28T18:34:38Z</time>
      </trkpt>
      <trkpt lat="44.75306" lon="-0.06335">
        <ele>30.932</ele>
        <time>2017-03-28T18:34:58Z</time>
      </trkpt>
      <trkpt lat="44.75232" lon="-0.06146">
        <ele>34.383</ele>
        <time>2017-03-28T18:35:18Z</time>
      </trkpt>
      <trkpt lat="44.752" lon="-0.06056">
        <ele>35.949</ele>
        <time>2017-03-28T18:35:38Z</time>
      </trkpt>
      <trkpt lat="44.75148" lon="-0.05978">
        <ele>34.721</ele>
        <time>2017-03-28T18:35:58Z</time>
      </trkpt>
      <trkpt lat="44.75094" lon="-0.05828">
        <ele>38.584</ele>
        <time>2017-03-28T18:36:18Z</time>
      </trkpt>
      <trkpt lat="44.75062" lon="-0.05813">
        <ele>36.307</ele>
        <time>2017-03-28T18:36:38Z</time>
      </trkpt>
      <trkpt lat="44.7505" lon="-0.05785">
        <ele>36.217</ele>
        <time>2017-03-28T18:36:58Z</time>
      </trkpt>
      <trkpt lat="44.75093" lon="-0.05558">
        <ele>36.108</ele>
        <time>2017-03-28T18:37:18Z</time>
      </trkpt>
      <trkpt lat="44.75383" lon="-0.05357">
        <ele>76.9</ele>
      </trkpt>
      <trkpt lat="44.75406" lon="-0.05395">
        <ele>78.3</ele>
      </trkpt>
    </trkseg>
  </trk>
</gpx>